Capitol Logistics 977


HKJK
Jomo Kenyatta International Airport
Nairobi, KE
EBLG
Liège Airport
Liege, BE

Route Details

Aircraft Information
Primary: Boeing 767-300BDSF
Backup: Not Available
Route Data
Distance: 3502nm
Sched. Duration: 7h 34m
Avg. Duration: 9h 00m (+166m)
Times Flown: 1
Recm'd Route: Not Available
Planned Altitude: 34,000ft
Origin Wx: HKJK 032130Z 02006KT 9999 SCT016 14/11 Q1023 NOSIG
Dest. Wx: EBLG 032220Z 23006KT CAVOK 15/11 Q1019 NOSIG
Notes:

Financial History
Total Freight: 90,845lbs
Average Load: 90,845lbs/flt
Fuel Used: 103,394lbs
Avg. Fuel Used: 103,394lbs/flt
Fuel Expense: $86,851
Avg. Fuel Expense: $86,851
Avg. Fuel Cost: $0.84/lbs
Total Gross Income: $892,098
Pilot Pay: $239
Total Expenses: $96,399
Total Revenue: $706,333
Average Revenue: $892,097.88